createdAt,value
2018-12-03T00:02:04.109Z,18.17
2018-12-03T00:04:32.819Z,18.50
2018-12-03T00:07:02.576Z,17.73
2018-12-03T00:09:31.233Z,19.97
2018-12-03T00:11:59.912Z,18.33
2018-12-03T00:14:28.603Z,19.07
2018-12-03T00:16:57.406Z,18.00
2018-12-03T00:19:26.180Z,19.27
2018-12-03T00:21:54.849Z,18.43
2018-12-03T00:24:23.567Z,18.57
2018-12-03T00:26:52.317Z,18.37
2018-12-03T00:29:21.002Z,18.27
2018-12-03T00:31:49.800Z,17.70
2018-12-03T00:34:18.650Z,17.77
2018-12-03T00:36:47.401Z,17.03
2018-12-03T00:39:16.120Z,17.07
2018-12-03T00:41:44.860Z,17.33
2018-12-03T00:44:13.603Z,17.50
2018-12-03T00:46:42.308Z,17.23
2018-12-03T00:49:10.992Z,17.37
2018-12-03T00:51:39.678Z,18.13
2018-12-03T00:54:08.980Z,17.17
2018-12-03T00:56:37.725Z,17.00
2018-12-03T00:59:08.736Z,17.47
2018-12-03T01:01:37.417Z,18.10
2018-12-03T01:04:06.364Z,16.27
2018-12-03T01:06:35.204Z,17.07
2018-12-03T01:09:08.381Z,16.63
2018-12-03T01:11:37.403Z,17.13
2018-12-03T01:14:06.445Z,16.93
2018-12-03T01:16:35.269Z,16.80
2018-12-03T01:19:05.950Z,16.50
2018-12-03T01:21:34.764Z,17.20
2018-12-03T01:24:05.253Z,17.17
2018-12-03T01:26:34.022Z,16.83
2018-12-03T01:29:03.948Z,15.70
2018-12-03T01:31:32.861Z,15.97
2018-12-03T01:34:02.442Z,16.20
2018-12-03T01:36:31.227Z,14.73
2018-12-03T01:38:59.951Z,13.80
2018-12-03T01:41:28.680Z,14.67
2018-12-03T01:43:57.407Z,14.37
2018-12-03T01:46:26.157Z,13.80
2018-12-03T01:48:55.025Z,13.80
2018-12-03T01:51:23.785Z,12.80
2018-12-03T01:53:52.520Z,12.13
2018-12-03T01:56:21.186Z,13.67
2018-12-03T01:58:50.090Z,13.27
2018-12-03T02:01:19.362Z,12.33
2018-12-03T02:03:48.406Z,12.93
2018-12-03T02:06:17.316Z,12.27
2018-12-03T02:08:46.014Z,12.03
2018-12-03T02:11:14.896Z,12.77
2018-12-03T02:13:43.711Z,13.40
2018-12-03T02:16:12.590Z,13.07
2018-12-03T02:18:41.326Z,12.20
2018-12-03T02:21:10.032Z,12.40
2018-12-03T02:23:38.849Z,12.13
2018-12-03T02:26:07.516Z,12.83
2018-12-03T02:28:36.210Z,12.47
2018-12-03T02:31:06.517Z,11.80
2018-12-03T02:33:35.354Z,12.63
2018-12-03T02:36:05.856Z,12.40
2018-12-03T02:38:34.758Z,11.63
2018-12-03T02:41:05.365Z,12.27
2018-12-03T02:43:34.181Z,12.60
2018-12-03T02:46:05.239Z,11.90
2018-12-03T02:48:34.109Z,11.90
2018-12-03T02:51:05.375Z,12.17
2018-12-03T02:53:34.374Z,12.40
2018-12-03T02:56:04.606Z,11.20
2018-12-03T02:58:33.365Z,10.90
2018-12-03T03:01:04.449Z,11.10
2018-12-03T03:03:33.299Z,10.53
2018-12-03T03:06:05.838Z,10.17
2018-12-03T03:08:34.936Z,10.47
2018-12-03T03:11:07.125Z,10.07
2018-12-03T03:13:35.972Z,8.53
2018-12-03T03:16:05.764Z,8.37
2018-12-03T03:18:34.553Z,7.50
2018-12-03T03:21:09.212Z,7.93
2018-12-03T03:23:38.316Z,7.07
2018-12-03T03:26:07.159Z,7.10
2018-12-03T03:28:35.867Z,6.90
2018-12-03T03:31:10.310Z,6.67
2018-12-03T03:33:39.204Z,6.83
2018-12-03T03:36:08.079Z,6.83
2018-12-03T03:38:36.830Z,6.47
2018-12-03T03:41:05.877Z,6.67
2018-12-03T03:43:34.595Z,6.03
2018-12-03T03:46:08.734Z,6.40
2018-12-03T03:48:37.585Z,6.40
2018-12-03T03:51:06.399Z,7.13
2018-12-03T03:53:35.192Z,6.67
2018-12-03T03:56:05.625Z,7.10
2018-12-03T03:58:34.462Z,7.23
2018-12-03T04:01:06.708Z,7.93
2018-12-03T04:03:35.560Z,8.57
2018-12-03T04:06:06.199Z,9.30
2018-12-03T04:08:34.901Z,8.73
2018-12-03T04:11:06.263Z,8.63
2018-12-03T04:13:35.390Z,10.27
2018-12-03T04:16:06.908Z,9.33
2018-12-03T04:18:35.581Z,9.90
2018-12-03T04:21:07.196Z,9.47
2018-12-03T04:23:35.871Z,9.40
2018-12-03T04:26:06.732Z,9.13
2018-12-03T04:28:35.631Z,8.67
2018-12-03T04:31:05.370Z,8.87
2018-12-03T04:33:34.226Z,9.00
2018-12-03T04:36:04.744Z,8.17
2018-12-03T04:38:33.467Z,7.70
2018-12-03T04:41:04.968Z,8.30
2018-12-03T04:43:33.676Z,7.87
2018-12-03T04:46:04.309Z,7.83
2018-12-03T04:48:33.039Z,8.30
2018-12-03T04:51:02.836Z,8.33
2018-12-03T04:53:31.606Z,8.43
2018-12-03T04:56:00.463Z,8.70
2018-12-03T04:58:29.268Z,7.70
2018-12-03T05:00:59.895Z,7.80
2018-12-03T05:03:28.495Z,8.47
2018-12-03T05:05:57.279Z,7.40
2018-12-03T05:08:26.286Z,7.03
2018-12-03T05:10:55.118Z,7.10
2018-12-03T05:13:23.904Z,7.23
2018-12-03T05:15:52.921Z,6.53
2018-12-03T05:18:21.548Z,7.20
2018-12-03T05:20:50.576Z,5.77
2018-12-03T05:23:19.270Z,6.63
2018-12-03T05:25:47.906Z,6.27
2018-12-03T05:28:16.586Z,6.27
2018-12-03T05:30:45.222Z,6.13
2018-12-03T05:33:13.880Z,5.50
2018-12-03T05:35:42.529Z,5.33
2018-12-03T05:38:11.193Z,5.30
2018-12-03T05:40:39.983Z,5.83
2018-12-03T05:43:08.726Z,4.90
2018-12-03T05:45:37.332Z,4.87
2018-12-03T05:48:07.327Z,5.67
2018-12-03T05:50:36.764Z,5.13
2018-12-03T05:53:06.759Z,5.50
2018-12-03T05:55:35.435Z,6.07
2018-12-03T05:58:06.111Z,5.53
2018-12-03T06:00:34.910Z,5.47
2018-12-03T06:03:06.501Z,5.13
2018-12-03T06:05:35.261Z,5.50
2018-12-03T06:08:06.350Z,5.50
2018-12-03T06:10:34.989Z,5.23
2018-12-03T06:13:06.385Z,4.53
2018-12-03T06:15:35.051Z,4.53
2018-12-03T06:18:07.198Z,5.40
2018-12-03T06:20:35.821Z,4.97
2018-12-03T06:23:06.381Z,5.00
2018-12-03T06:25:35.574Z,4.70
2018-12-03T06:28:05.993Z,5.10
2018-12-03T06:30:34.681Z,4.53
2018-12-03T06:33:05.175Z,4.80
2018-12-03T06:35:33.837Z,5.20
2018-12-03T06:38:03.852Z,5.27
2018-12-03T06:40:33.407Z,6.10
2018-12-03T06:43:03.338Z,5.77
2018-12-03T06:45:31.979Z,5.97
2018-12-03T06:48:20.877Z,5.33
2018-12-03T06:50:49.563Z,5.50
2018-12-03T06:53:18.244Z,5.20
2018-12-03T06:55:46.932Z,4.93
2018-12-03T06:58:16.314Z,5.00
2018-12-03T07:00:47.119Z,4.63
2018-12-03T07:03:15.866Z,5.17
2018-12-03T07:05:45.808Z,4.27
2018-12-03T07:08:14.503Z,4.30
2018-12-03T07:10:43.268Z,3.97
2018-12-03T07:13:18.251Z,3.97
2018-12-03T07:15:49.698Z,3.67
2018-12-03T07:18:18.329Z,4.10
2018-12-03T07:20:47.237Z,4.07
2018-12-03T07:23:15.854Z,4.13
2018-12-03T07:25:44.502Z,4.40
2018-12-03T07:28:13.441Z,3.40
2018-12-03T07:30:42.118Z,3.73
2018-12-03T07:33:10.782Z,4.20
2018-12-03T07:35:39.419Z,4.60
2018-12-03T07:38:08.378Z,4.30
2018-12-03T07:40:37.030Z,4.90
2018-12-03T07:43:06.245Z,5.30
2018-12-03T07:45:35.206Z,4.77
2018-12-03T07:48:08.060Z,4.83
2018-12-03T07:50:36.715Z,4.80
2018-12-03T07:53:05.773Z,5.00
2018-12-03T07:55:34.407Z,5.27
2018-12-03T07:58:05.739Z,6.13
2018-12-03T08:00:48.115Z,5.00
2018-12-03T08:03:16.762Z,6.07
2018-12-03T08:05:45.760Z,5.70
2018-12-03T08:08:14.898Z,5.77
2018-12-03T08:10:45.806Z,5.73
2018-12-03T08:13:15.284Z,5.67
2018-12-03T08:15:43.943Z,5.70
2018-12-03T08:18:16.594Z,6.03
2018-12-03T08:20:51.387Z,5.87
2018-12-03T08:23:41.156Z,5.60
2018-12-03T08:26:11.822Z,5.87
2018-12-03T08:28:40.643Z,5.70
2018-12-03T08:31:09.317Z,5.57
2018-12-03T08:33:37.915Z,5.57
2018-12-03T08:36:08.032Z,5.90
2018-12-03T08:38:37.479Z,5.80
2018-12-03T08:41:08.001Z,6.33
2018-12-03T08:43:36.645Z,6.27
2018-12-03T08:46:08.023Z,6.80
2018-12-03T08:48:41.147Z,6.10
2018-12-03T08:51:10.843Z,6.50
2018-12-03T08:53:39.760Z,5.93
2018-12-03T08:56:08.898Z,6.60
2018-12-03T08:58:37.557Z,5.70
2018-12-03T09:01:11.374Z,6.80
2018-12-03T09:03:40.829Z,5.97
2018-12-03T09:06:11.208Z,6.53
2018-12-03T09:08:39.956Z,6.27
2018-12-03T09:11:12.662Z,5.70
2018-12-03T09:13:41.288Z,6.20
2018-12-03T09:16:10.406Z,6.10
2018-12-03T09:18:40.587Z,5.90
2018-12-03T09:21:11.269Z,6.37
2018-12-03T09:23:40.994Z,6.33
2018-12-03T09:26:10.693Z,6.27
2018-12-03T09:28:39.482Z,6.00
2018-12-03T09:31:08.197Z,6.43
2018-12-03T09:33:37.346Z,7.10
2018-12-03T09:36:06.821Z,6.40
2018-12-03T09:38:46.852Z,6.00
2018-12-03T09:41:15.523Z,8.00
2018-12-03T09:43:45.170Z,6.57
2018-12-03T09:46:15.525Z,7.30
2018-12-03T09:48:44.344Z,6.50
2018-12-03T09:51:13.150Z,5.93
2018-12-03T09:53:41.848Z,6.90
2018-12-03T09:56:10.623Z,6.40
2018-12-03T09:58:39.643Z,7.43
2018-12-03T10:01:11.819Z,6.70
2018-12-03T10:03:42.761Z,6.80
2018-12-03T10:06:16.341Z,6.83
2018-12-03T10:08:46.912Z,7.17
2018-12-03T10:11:15.510Z,5.77
2018-12-03T10:13:44.288Z,6.40
2018-12-03T10:16:13.052Z,7.07
2018-12-03T10:18:42.239Z,6.53
2018-12-03T10:21:11.488Z,6.63
2018-12-03T10:23:40.321Z,6.33
2018-12-03T10:26:10.956Z,6.53
2018-12-03T10:28:39.647Z,6.30
2018-12-03T10:31:13.751Z,5.83
2018-12-03T10:33:42.429Z,6.17
2018-12-03T10:36:12.048Z,6.27
2018-12-03T10:38:42.993Z,6.07
2018-12-03T10:41:14.082Z,6.83
2018-12-03T10:43:42.716Z,6.30
2018-12-03T10:46:11.895Z,6.20
2018-12-03T10:48:40.919Z,6.03
2018-12-03T10:51:14.220Z,6.43
2018-12-03T10:53:42.886Z,6.97
2018-12-03T10:56:11.586Z,6.23
2018-12-03T10:58:43.299Z,6.10
2018-12-03T11:01:17.226Z,5.43
2018-12-03T11:03:51.180Z,5.50
2018-12-03T11:06:21.938Z,5.77
2018-12-03T11:08:50.600Z,5.73
2018-12-03T11:11:19.318Z,6.70
2018-12-03T11:13:48.042Z,5.63
2018-12-03T11:16:26.495Z,6.13
2018-12-03T11:18:56.278Z,5.83
2018-12-03T11:21:25.489Z,6.03
2018-12-03T11:23:54.143Z,6.33
2018-12-03T11:26:24.811Z,6.57
2018-12-03T11:28:54.684Z,6.20
2018-12-03T11:31:27.315Z,5.20
2018-12-03T11:33:55.921Z,5.50
2018-12-03T11:36:28.718Z,5.70
2018-12-03T11:39:05.486Z,6.00
2018-12-03T11:41:34.171Z,5.47
2018-12-03T11:44:03.783Z,5.20
2018-12-03T11:46:32.429Z,4.90
2018-12-03T11:49:02.871Z,5.73
2018-12-03T11:51:32.505Z,6.37
2018-12-03T11:54:02.868Z,5.53
2018-12-03T11:56:31.542Z,5.57
2018-12-03T11:59:00.246Z,5.97
2018-12-03T12:01:28.926Z,5.63
2018-12-03T12:03:57.598Z,6.33
2018-12-03T12:06:26.313Z,5.33
2018-12-03T12:08:55.465Z,6.27
2018-12-03T12:11:24.114Z,5.07
2018-12-03T12:13:52.836Z,6.37
2018-12-03T12:16:21.689Z,5.70
2018-12-03T12:18:51.703Z,5.53
2018-12-03T12:21:20.921Z,5.90
2018-12-03T12:23:49.766Z,5.27
2018-12-03T12:26:18.942Z,6.13
2018-12-03T12:28:47.572Z,6.53
2018-12-03T12:31:16.220Z,6.13
2018-12-03T12:33:44.851Z,5.63
2018-12-03T12:36:13.473Z,6.90
2018-12-03T12:38:42.081Z,5.77
2018-12-03T12:41:10.745Z,6.17
2018-12-03T12:43:39.420Z,5.30
2018-12-03T12:46:10.465Z,5.33
2018-12-03T12:48:39.464Z,5.57
2018-12-03T12:51:08.116Z,5.10
2018-12-03T12:53:36.777Z,5.60
2018-12-03T12:56:05.773Z,4.77
2018-12-03T12:58:34.377Z,5.10
2018-12-03T13:01:05.497Z,6.07
2018-12-03T13:03:34.481Z,6.93
2018-12-03T13:06:04.947Z,6.90
2018-12-03T13:08:33.723Z,5.13
2018-12-03T13:11:03.948Z,6.00
2018-12-03T13:13:32.651Z,5.13
2018-12-03T13:16:03.405Z,6.17
2018-12-03T13:18:32.366Z,5.47
2018-12-03T13:21:02.374Z,6.20
2018-12-03T13:23:31.196Z,5.87
2018-12-03T13:26:00.267Z,6.43
2018-12-03T13:28:29.053Z,6.57
2018-12-03T13:30:57.747Z,5.20
2018-12-03T13:33:26.339Z,6.37
2018-12-03T13:35:55.187Z,5.80
2018-12-03T13:38:23.783Z,5.93
2018-12-03T13:40:52.479Z,6.23
2018-12-03T13:43:21.163Z,7.03
2018-12-03T13:45:49.794Z,6.07
2018-12-03T13:48:19.351Z,6.63
2018-12-03T13:50:47.993Z,6.00
2018-12-03T13:53:18.683Z,5.87
2018-12-03T13:55:47.366Z,6.37
2018-12-03T13:58:16.240Z,6.50
2018-12-03T14:00:44.905Z,5.80
2018-12-03T14:03:18.570Z,5.97
2018-12-03T14:06:25.029Z,6.50
2018-12-03T14:09:19.377Z,5.50
2018-12-03T14:12:25.516Z,6.47
2018-12-03T14:15:37.703Z,5.93
2018-12-03T14:18:18.917Z,6.27
2018-12-03T14:20:49.819Z,6.57
2018-12-03T14:23:23.083Z,6.77
2018-12-03T14:26:22.162Z,6.97
2018-12-03T14:28:50.667Z,6.23
2018-12-03T14:31:19.159Z,6.67
2018-12-03T14:33:48.009Z,6.67
2018-12-03T14:36:16.643Z,6.47
2018-12-03T14:38:45.222Z,8.60
2018-12-03T14:41:15.686Z,8.77
2018-12-03T14:43:44.317Z,8.57
2018-12-03T14:46:12.914Z,8.20
2018-12-03T14:48:41.772Z,8.73
2018-12-03T14:51:10.431Z,9.50
2018-12-03T14:53:38.993Z,8.80
2018-12-03T14:56:12.213Z,10.17
2018-12-03T14:58:40.780Z,10.47
2018-12-03T15:01:09.360Z,10.03
2018-12-03T15:03:37.869Z,9.20
2018-12-03T15:06:07.820Z,9.47
2018-12-03T15:08:36.931Z,10.07
2018-12-03T15:11:05.632Z,10.77
2018-12-03T15:13:34.223Z,9.87
2018-12-03T15:16:04.984Z,10.70
2018-12-03T15:18:33.687Z,10.13
2018-12-03T15:21:06.078Z,10.07
2018-12-03T15:23:34.579Z,10.17
2018-12-03T15:26:04.566Z,9.33
2018-12-03T15:28:33.090Z,9.73
2018-12-03T15:31:02.687Z,9.77
2018-12-03T15:33:31.430Z,10.20
2018-12-03T15:35:59.942Z,9.43
2018-12-03T15:38:28.496Z,9.27
2018-12-03T15:40:56.983Z,10.10
2018-12-03T15:43:25.602Z,9.50
2018-12-03T15:45:54.145Z,9.27
2018-12-03T15:48:22.683Z,9.13
2018-12-03T15:50:52.373Z,9.40
2018-12-03T15:53:21.169Z,9.00
2018-12-03T15:55:49.749Z,9.10
2018-12-03T15:58:18.506Z,9.53
2018-12-03T16:00:47.069Z,10.03
2018-12-03T16:03:15.608Z,10.10
2018-12-03T16:05:44.228Z,10.30
2018-12-03T16:08:12.763Z,9.10
2018-12-03T16:10:41.458Z,9.23
2018-12-03T16:13:10.148Z,8.13
2018-12-03T16:15:38.739Z,7.50
2018-12-03T16:18:07.369Z,6.97
2018-12-03T16:20:35.927Z,6.03
2018-12-03T16:23:05.114Z,6.87
2018-12-03T16:25:33.751Z,7.50
2018-12-03T16:28:04.546Z,7.63
2018-12-03T16:30:33.100Z,7.80
2018-12-03T16:33:02.759Z,8.77
2018-12-03T16:35:31.369Z,9.47
2018-12-03T16:37:59.936Z,10.53
2018-12-03T16:40:38.351Z,11.20
2018-12-03T16:43:07.234Z,12.17
2018-12-03T16:45:35.813Z,12.90
2018-12-03T16:48:05.392Z,14.27
2018-12-03T16:50:34.137Z,14.20
2018-12-03T16:53:04.312Z,14.70
2018-12-03T16:55:34.620Z,14.63
2018-12-03T16:58:05.109Z,14.93
2018-12-03T17:00:33.742Z,15.47
2018-12-03T17:03:03.742Z,14.27
2018-12-03T17:05:34.193Z,14.80
2018-12-03T17:08:03.724Z,14.60
2018-12-03T17:10:32.369Z,15.00
2018-12-03T17:13:03.365Z,15.47
2018-12-03T17:15:31.938Z,14.93
2018-12-03T17:18:00.541Z,15.83
2018-12-03T17:22:43.240Z,15.30
2018-12-03T17:25:15.752Z,14.37
2018-12-03T17:27:44.353Z,19.83
2018-12-03T17:30:13.014Z,9.23
2018-12-03T17:32:41.533Z,8.03
2018-12-03T17:35:10.131Z,9.10
2018-12-03T17:37:38.673Z,10.90
2018-12-03T17:40:11.511Z,12.60
2018-12-03T17:42:40.240Z,13.00
2018-12-03T17:45:11.506Z,13.73
2018-12-03T17:47:40.574Z,9.87
2018-12-03T17:50:09.181Z,7.33
2018-12-03T17:52:39.118Z,7.07
2018-12-03T17:55:08.212Z,7.70
2018-12-03T17:57:36.906Z,8.17
2018-12-03T18:00:12.166Z,8.43
2018-12-03T18:02:40.747Z,9.73
2018-12-03T18:05:09.375Z,11.10
2018-12-03T18:07:37.959Z,11.40
2018-12-03T18:10:09.024Z,11.13
2018-12-03T18:12:37.664Z,11.30
2018-12-03T18:15:08.119Z,9.90
2018-12-03T18:17:36.663Z,8.67
2018-12-03T18:20:07.285Z,8.77
2018-12-03T18:22:35.778Z,8.97
2018-12-03T18:25:06.538Z,10.57
2018-12-03T18:27:35.149Z,10.70
2018-12-03T18:30:07.831Z,12.13
2018-12-03T18:32:36.567Z,12.17
2018-12-03T18:35:06.276Z,12.90
2018-12-03T18:37:34.950Z,12.07
2018-12-03T18:40:05.953Z,12.50
2018-12-03T18:42:35.423Z,13.40
2018-12-03T18:45:06.692Z,12.60
2018-12-03T18:47:35.253Z,12.97
2018-12-03T18:50:17.607Z,12.03
2018-12-03T18:52:46.172Z,11.60
2018-12-03T18:55:14.720Z,11.43
2018-12-03T18:57:44.211Z,12.50
2018-12-03T19:00:14.744Z,12.07
2018-12-03T19:02:43.453Z,13.67
2018-12-03T19:05:12.104Z,14.83
2018-12-03T19:07:40.778Z,14.17
2018-12-03T19:10:09.347Z,13.43
2018-12-03T19:12:37.947Z,13.53
2018-12-03T19:15:06.809Z,11.33
2018-12-03T19:17:35.382Z,12.63
2018-12-03T19:20:08.714Z,12.03
2018-12-03T19:22:37.324Z,10.50
2018-12-03T19:25:07.626Z,10.23
2018-12-03T19:27:36.828Z,11.20
2018-12-03T19:30:10.724Z,9.73
2018-12-03T19:32:39.361Z,11.67
2018-12-03T19:35:09.003Z,10.07
2018-12-03T19:37:37.851Z,10.20
2018-12-03T19:40:08.253Z,11.83
2018-12-03T19:42:36.962Z,11.60
2018-12-03T19:45:06.867Z,12.67
2018-12-03T19:47:37.902Z,12.13
2018-12-03T19:50:08.568Z,11.77
2018-12-03T19:52:37.935Z,11.83
2018-12-03T19:55:08.807Z,11.03
2018-12-03T19:57:38.506Z,11.93
2018-12-03T20:00:10.942Z,12.47
2018-12-03T20:02:39.755Z,13.73
2018-12-03T20:05:13.909Z,9.90
2018-12-03T20:07:42.831Z,8.60
2018-12-03T20:10:11.738Z,7.03
2018-12-03T20:12:40.604Z,6.73
2018-12-03T20:15:10.853Z,7.40
2018-12-03T20:17:43.642Z,4.47
2018-12-03T20:20:17.940Z,3.60
2018-12-03T20:23:01.034Z,3.37
2018-12-03T20:25:34.833Z,4.07
2018-12-03T20:28:08.597Z,3.70
2018-12-03T20:31:07.485Z,4.17
2018-12-03T20:34:47.598Z,4.73
2018-12-03T20:38:23.206Z,4.23
2018-12-03T20:41:30.287Z,4.83
2018-12-03T20:44:08.444Z,5.03
2018-12-03T20:46:49.554Z,5.53
2018-12-03T20:49:27.134Z,6.60
2018-12-03T20:52:05.599Z,5.63
2018-12-03T20:54:34.403Z,6.73
2018-12-03T20:57:04.957Z,5.17
2018-12-03T20:59:34.466Z,5.87
2018-12-03T21:02:06.904Z,5.67
2018-12-03T21:04:35.471Z,6.37
2018-12-03T21:07:05.710Z,6.00
2018-12-03T21:09:34.546Z,6.20
2018-12-03T21:12:04.935Z,5.27
2018-12-03T21:14:33.515Z,3.50
2018-12-03T21:17:03.851Z,3.50
2018-12-03T21:19:32.620Z,3.50
2018-12-03T21:22:03.184Z,3.27
2018-12-03T21:24:32.036Z,2.93
2018-12-03T21:27:00.628Z,2.23
2018-12-03T21:29:29.544Z,2.30
2018-12-03T21:31:58.258Z,2.03
2018-12-03T21:34:26.842Z,2.20
2018-12-03T21:36:55.422Z,2.33
2018-12-03T21:39:26.438Z,3.00
2018-12-03T21:41:55.021Z,2.50
2018-12-03T21:44:23.619Z,2.03
2018-12-03T21:46:52.155Z,2.20
2018-12-03T21:49:20.688Z,2.00
2018-12-03T21:51:49.215Z,2.33
2018-12-03T21:54:18.005Z,2.10
2018-12-03T21:56:46.601Z,2.27
2018-12-03T21:59:15.114Z,1.90
2018-12-03T22:01:43.765Z,1.83
2018-12-03T22:04:12.292Z,1.77
2018-12-03T22:06:41.158Z,1.70
2018-12-03T22:09:09.827Z,1.80
2018-12-03T22:11:38.399Z,2.27
2018-12-03T22:14:07.071Z,2.03
2018-12-03T22:16:39.460Z,2.40
2018-12-03T22:19:08.083Z,2.07
2018-12-03T22:21:36.622Z,1.90
2018-12-03T22:24:05.551Z,2.27
2018-12-03T22:26:34.110Z,1.73
2018-12-03T22:29:03.963Z,1.70
2018-12-03T22:31:32.497Z,1.80
2018-12-03T22:34:03.285Z,2.00
2018-12-03T22:36:32.043Z,1.93
2018-12-03T22:39:00.558Z,1.83
2018-12-03T22:41:29.096Z,1.70
2018-12-03T22:43:57.620Z,2.03
2018-12-03T22:46:26.156Z,2.03
2018-12-03T22:48:54.645Z,1.90
2018-12-03T22:51:23.275Z,1.87
2018-12-03T22:53:51.793Z,2.17
2018-12-03T22:56:20.414Z,2.50
2018-12-03T22:58:48.937Z,2.73
2018-12-03T23:01:21.706Z,3.07
2018-12-03T23:03:50.238Z,3.00
2018-12-03T23:06:19.006Z,2.33
2018-12-03T23:08:47.575Z,2.20
2018-12-03T23:11:16.634Z,2.20
2018-12-03T23:13:45.195Z,2.73
2018-12-03T23:16:13.722Z,2.50
2018-12-03T23:18:42.337Z,2.30
2018-12-03T23:21:12.022Z,2.33
2018-12-03T23:23:40.619Z,2.10
2018-12-03T23:26:09.152Z,2.43
2018-12-03T23:28:37.640Z,2.20
2018-12-03T23:31:06.259Z,2.57
2018-12-03T23:33:34.856Z,2.00
2018-12-03T23:36:04.503Z,2.10
2018-12-03T23:38:33.680Z,2.47
2018-12-03T23:41:04.238Z,2.50
2018-12-03T23:43:32.864Z,2.70
2018-12-03T23:46:03.136Z,2.60
2018-12-03T23:48:32.132Z,2.80
2018-12-03T23:51:00.848Z,2.30
2018-12-03T23:53:29.331Z,2.37
2018-12-03T23:55:57.855Z,2.60
2018-12-03T23:58:26.957Z,2.97
